sensor_id;sensor_type;location;lat;lon;timestamp;P1;durP1;ratioP1;P2;durP2;ratioP2
56567;SDS011;42456;49.956;20.004;2023-10-09T00:02:11;6.90;;;3.30;;
56567;SDS011;42456;49.956;20.004;2023-10-09T00:04:43;7.90;;;2.90;;
56567;SDS011;42456;49.956;20.004;2023-10-09T00:07:13;6.80;;;3.10;;
56567;SDS011;42456;49.956;20.004;2023-10-09T00:09:43;7.70;;;3.50;;
56567;SDS011;42456;49.956;20.004;2023-10-09T00:12:17;9.00;;;3.10;;
56567;SDS011;42456;49.956;20.004;2023-10-09T00:14:50;7.50;;;3.50;;
56567;SDS011;42456;49.956;20.004;2023-10-09T00:17:23;7.30;;;3.10;;
56567;SDS011;42456;49.956;20.004;2023-10-09T00:19:51;7.50;;;3.30;;
56567;SDS011;42456;49.956;20.004;2023-10-09T00:22:19;9.70;;;4.00;;
56567;SDS011;42456;49.956;20.004;2023-10-09T00:24:53;7.80;;;3.30;;
56567;SDS011;42456;49.956;20.004;2023-10-09T00:27:33;6.80;;;3.70;;
56567;SDS011;42456;49.956;20.004;2023-10-09T00:30:03;6.90;;;3.20;;
56567;SDS011;42456;49.956;20.004;2023-10-09T00:32:32;6.60;;;3.30;;
56567;SDS011;42456;49.956;20.004;2023-10-09T00:35:00;6.70;;;3.10;;
56567;SDS011;42456;49.956;20.004;2023-10-09T00:37:46;8.20;;;3.30;;
56567;SDS011;42456;49.956;20.004;2023-10-09T00:40:14;7.10;;;3.10;;
56567;SDS011;42456;49.956;20.004;2023-10-09T00:42:49;6.70;;;3.10;;
56567;SDS011;42456;49.956;20.004;2023-10-09T00:45:18;6.40;;;3.00;;
56567;SDS011;42456;49.956;20.004;2023-10-09T00:47:54;5.50;;;2.90;;
56567;SDS011;42456;49.956;20.004;2023-10-09T00:50:25;7.00;;;2.90;;
56567;SDS011;42456;49.956;20.004;2023-10-09T00:52:53;7.60;;;3.30;;
56567;SDS011;42456;49.956;20.004;2023-10-09T00:55:35;5.70;;;3.20;;
56567;SDS011;42456;49.956;20.004;2023-10-09T00:58:09;8.80;;;3.30;;
56567;SDS011;42456;49.956;20.004;2023-10-09T01:00:41;5.80;;;3.10;;
56567;SDS011;42456;49.956;20.004;2023-10-09T01:03:15;5.10;;;2.90;;
56567;SDS011;42456;49.956;20.004;2023-10-09T01:08:19;5.60;;;2.70;;
56567;SDS011;42456;49.956;20.004;2023-10-09T01:13:45;11.00;;;3.30;;
56567;SDS011;42456;49.956;20.004;2023-10-09T01:16:20;8.00;;;3.10;;
56567;SDS011;42456;49.956;20.004;2023-10-09T01:18:50;6.80;;;3.00;;
56567;SDS011;42456;49.956;20.004;2023-10-09T01:21:19;7.70;;;2.80;;
56567;SDS011;42456;49.956;20.004;2023-10-09T01:23:53;5.10;;;2.70;;
56567;SDS011;42456;49.956;20.004;2023-10-09T01:26:31;7.10;;;2.90;;
56567;SDS011;42456;49.956;20.004;2023-10-09T01:29:06;5.90;;;2.70;;
56567;SDS011;42456;49.956;20.004;2023-10-09T01:31:49;7.90;;;2.80;;
56567;SDS011;42456;49.956;20.004;2023-10-09T01:34:23;6.70;;;2.50;;
56567;SDS011;42456;49.956;20.004;2023-10-09T01:37:12;8.20;;;2.70;;
56567;SDS011;42456;49.956;20.004;2023-10-09T01:39:50;5.40;;;2.70;;
56567;SDS011;42456;49.956;20.004;2023-10-09T01:42:46;6.80;;;2.70;;
56567;SDS011;42456;49.956;20.004;2023-10-09T01:45:13;5.80;;;2.60;;
56567;SDS011;42456;49.956;20.004;2023-10-09T01:47:46;6.80;;;3.10;;
56567;SDS011;42456;49.956;20.004;2023-10-09T01:50:21;3.90;;;2.50;;
56567;SDS011;42456;49.956;20.004;2023-10-09T01:52:51;5.80;;;2.50;;
56567;SDS011;42456;49.956;20.004;2023-10-09T01:55:18;8.90;;;3.00;;
56567;SDS011;42456;49.956;20.004;2023-10-09T01:57:58;4.30;;;2.30;;
56567;SDS011;42456;49.956;20.004;2023-10-09T02:00:29;5.70;;;2.40;;
56567;SDS011;42456;49.956;20.004;2023-10-09T02:02:57;7.00;;;2.80;;
56567;SDS011;42456;49.956;20.004;2023-10-09T02:05:30;5.20;;;2.30;;
56567;SDS011;42456;49.956;20.004;2023-10-09T02:08:00;4.80;;;2.50;;
56567;SDS011;42456;49.956;20.004;2023-10-09T02:10:28;5.10;;;2.50;;
56567;SDS011;42456;49.956;20.004;2023-10-09T02:12:59;8.20;;;2.30;;
56567;SDS011;42456;49.956;20.004;2023-10-09T02:15:34;5.30;;;2.40;;
56567;SDS011;42456;49.956;20.004;2023-10-09T02:18:13;6.10;;;2.30;;
56567;SDS011;42456;49.956;20.004;2023-10-09T02:23:32;4.30;;;2.20;;
56567;SDS011;42456;49.956;20.004;2023-10-09T02:26:14;4.50;;;2.30;;
56567;SDS011;42456;49.956;20.004;2023-10-09T02:28:45;3.90;;;2.40;;
56567;SDS011;42456;49.956;20.004;2023-10-09T02:31:26;3.00;;;2.30;;
56567;SDS011;42456;49.956;20.004;2023-10-09T02:34:00;6.10;;;3.10;;
56567;SDS011;42456;49.956;20.004;2023-10-09T02:36:32;3.70;;;2.20;;
56567;SDS011;42456;49.956;20.004;2023-10-09T02:39:01;4.80;;;2.60;;
56567;SDS011;42456;49.956;20.004;2023-10-09T02:41:32;6.60;;;2.60;;
56567;SDS011;42456;49.956;20.004;2023-10-09T02:44:01;6.40;;;2.80;;
56567;SDS011;42456;49.956;20.004;2023-10-09T02:46:38;5.20;;;2.60;;
56567;SDS011;42456;49.956;20.004;2023-10-09T02:49:07;6.50;;;2.70;;
56567;SDS011;42456;49.956;20.004;2023-10-09T02:51:36;6.30;;;2.80;;
56567;SDS011;42456;49.956;20.004;2023-10-09T02:54:09;6.30;;;2.60;;
56567;SDS011;42456;49.956;20.004;2023-10-09T02:57:05;5.70;;;2.40;;
56567;SDS011;42456;49.956;20.004;2023-10-09T02:59:34;6.10;;;2.90;;
56567;SDS011;42456;49.956;20.004;2023-10-09T03:02:05;6.50;;;2.50;;
56567;SDS011;42456;49.956;20.004;2023-10-09T03:04:32;7.40;;;2.50;;
56567;SDS011;42456;49.956;20.004;2023-10-09T03:06:59;5.90;;;2.60;;
56567;SDS011;42456;49.956;20.004;2023-10-09T03:09:26;7.20;;;3.10;;
56567;SDS011;42456;49.956;20.004;2023-10-09T03:11:58;7.10;;;2.50;;
56567;SDS011;42456;49.956;20.004;2023-10-09T03:14:34;5.00;;;2.70;;
56567;SDS011;42456;49.956;20.004;2023-10-09T03:17:05;5.10;;;2.40;;
56567;SDS011;42456;49.956;20.004;2023-10-09T03:19:33;6.00;;;2.40;;
56567;SDS011;42456;49.956;20.004;2023-10-09T03:22:07;6.00;;;2.50;;
56567;SDS011;42456;49.956;20.004;2023-10-09T03:24:40;8.70;;;3.10;;
56567;SDS011;42456;49.956;20.004;2023-10-09T03:27:16;6.70;;;3.00;;
56567;SDS011;42456;49.956;20.004;2023-10-09T03:29:45;5.20;;;2.80;;
56567;SDS011;42456;49.956;20.004;2023-10-09T03:32:20;5.60;;;2.90;;
56567;SDS011;42456;49.956;20.004;2023-10-09T03:34:47;6.60;;;3.00;;
56567;SDS011;42456;49.956;20.004;2023-10-09T03:37:18;4.30;;;2.50;;
56567;SDS011;42456;49.956;20.004;2023-10-09T03:40:01;6.20;;;2.50;;
56567;SDS011;42456;49.956;20.004;2023-10-09T03:42:32;4.60;;;2.20;;
56567;SDS011;42456;49.956;20.004;2023-10-09T03:45:03;4.90;;;2.50;;
56567;SDS011;42456;49.956;20.004;2023-10-09T03:47:39;6.80;;;2.60;;
56567;SDS011;42456;49.956;20.004;2023-10-09T03:50:15;5.30;;;2.50;;
56567;SDS011;42456;49.956;20.004;2023-10-09T03:52:53;7.00;;;2.60;;
56567;SDS011;42456;49.956;20.004;2023-10-09T03:55:22;6.00;;;2.50;;
56567;SDS011;42456;49.956;20.004;2023-10-09T03:57:55;6.20;;;2.60;;
56567;SDS011;42456;49.956;20.004;2023-10-09T04:00:24;5.20;;;2.70;;
56567;SDS011;42456;49.956;20.004;2023-10-09T04:02:55;4.10;;;2.20;;
56567;SDS011;42456;49.956;20.004;2023-10-09T04:05:24;4.70;;;2.50;;
56567;SDS011;42456;49.956;20.004;2023-10-09T04:07:53;3.50;;;2.60;;
56567;SDS011;42456;49.956;20.004;2023-10-09T04:10:24;6.40;;;2.80;;
56567;SDS011;42456;49.956;20.004;2023-10-09T04:13:10;5.10;;;2.60;;
56567;SDS011;42456;49.956;20.004;2023-10-09T04:15:43;5.10;;;2.90;;
56567;SDS011;42456;49.956;20.004;2023-10-09T04:18:10;5.50;;;2.40;;
56567;SDS011;42456;49.956;20.004;2023-10-09T04:20:42;5.30;;;2.80;;
56567;SDS011;42456;49.956;20.004;2023-10-09T04:23:29;5.80;;;2.80;;
56567;SDS011;42456;49.956;20.004;2023-10-09T04:26:22;5.30;;;2.40;;
56567;SDS011;42456;49.956;20.004;2023-10-09T04:28:55;6.80;;;2.70;;
56567;SDS011;42456;49.956;20.004;2023-10-09T04:31:22;5.20;;;2.70;;
56567;SDS011;42456;49.956;20.004;2023-10-09T04:36:24;3.90;;;2.30;;
56567;SDS011;42456;49.956;20.004;2023-10-09T04:38:55;7.00;;;3.20;;
56567;SDS011;42456;49.956;20.004;2023-10-09T04:41:33;4.70;;;2.30;;
56567;SDS011;42456;49.956;20.004;2023-10-09T04:44:19;5.20;;;2.50;;
56567;SDS011;42456;49.956;20.004;2023-10-09T04:46:50;6.60;;;2.50;;
56567;SDS011;42456;49.956;20.004;2023-10-09T04:49:32;4.50;;;2.50;;
56567;SDS011;42456;49.956;20.004;2023-10-09T04:52:16;5.40;;;2.40;;
56567;SDS011;42456;49.956;20.004;2023-10-09T04:54:46;4.30;;;2.60;;
56567;SDS011;42456;49.956;20.004;2023-10-09T04:57:36;5.00;;;2.30;;
56567;SDS011;42456;49.956;20.004;2023-10-09T05:02:50;4.50;;;2.50;;
56567;SDS011;42456;49.956;20.004;2023-10-09T05:05:24;8.10;;;2.80;;
56567;SDS011;42456;49.956;20.004;2023-10-09T05:08:09;4.40;;;2.30;;
56567;SDS011;42456;49.956;20.004;2023-10-09T05:10:58;3.40;;;2.00;;
56567;SDS011;42456;49.956;20.004;2023-10-09T05:13:44;6.00;;;2.80;;
56567;SDS011;42456;49.956;20.004;2023-10-09T05:16:24;7.30;;;2.80;;
56567;SDS011;42456;49.956;20.004;2023-10-09T05:19:00;5.00;;;2.50;;
56567;SDS011;42456;49.956;20.004;2023-10-09T05:21:38;4.90;;;2.50;;
56567;SDS011;42456;49.956;20.004;2023-10-09T05:24:10;5.20;;;2.50;;
56567;SDS011;42456;49.956;20.004;2023-10-09T05:29:19;5.70;;;2.20;;
56567;SDS011;42456;49.956;20.004;2023-10-09T05:32:02;4.70;;;2.30;;
56567;SDS011;42456;49.956;20.004;2023-10-09T05:34:40;4.90;;;2.50;;
56567;SDS011;42456;49.956;20.004;2023-10-09T05:37:22;5.00;;;2.50;;
56567;SDS011;42456;49.956;20.004;2023-10-09T05:39:55;8.60;;;2.80;;
56567;SDS011;42456;49.956;20.004;2023-10-09T05:42:29;4.90;;;2.00;;
56567;SDS011;42456;49.956;20.004;2023-10-09T05:45:04;5.30;;;2.40;;
56567;SDS011;42456;49.956;20.004;2023-10-09T05:47:47;5.10;;;2.70;;
56567;SDS011;42456;49.956;20.004;2023-10-09T05:50:26;4.50;;;2.30;;
56567;SDS011;42456;49.956;20.004;2023-10-09T05:52:57;4.10;;;2.40;;
56567;SDS011;42456;49.956;20.004;2023-10-09T05:55:28;4.90;;;2.50;;
56567;SDS011;42456;49.956;20.004;2023-10-09T05:58:10;5.60;;;2.20;;
56567;SDS011;42456;49.956;20.004;2023-10-09T06:01:06;3.40;;;2.50;;
56567;SDS011;42456;49.956;20.004;2023-10-09T06:03:47;5.40;;;2.30;;
56567;SDS011;42456;49.956;20.004;2023-10-09T06:06:39;2.40;;;1.70;;
56567;SDS011;42456;49.956;20.004;2023-10-09T06:09:12;3.40;;;2.30;;
56567;SDS011;42456;49.956;20.004;2023-10-09T06:11:44;4.10;;;2.10;;
56567;SDS011;42456;49.956;20.004;2023-10-09T06:14:24;2.70;;;1.80;;
56567;SDS011;42456;49.956;20.004;2023-10-09T06:16:57;6.80;;;2.10;;
56567;SDS011;42456;49.956;20.004;2023-10-09T06:19:28;5.00;;;2.00;;
56567;SDS011;42456;49.956;20.004;2023-10-09T06:21:55;5.50;;;2.20;;
56567;SDS011;42456;49.956;20.004;2023-10-09T06:24:36;2.60;;;1.70;;
56567;SDS011;42456;49.956;20.004;2023-10-09T06:27:10;3.80;;;2.10;;
56567;SDS011;42456;49.956;20.004;2023-10-09T06:29:39;3.40;;;2.10;;
56567;SDS011;42456;49.956;20.004;2023-10-09T06:32:11;3.60;;;2.20;;
56567;SDS011;42456;49.956;20.004;2023-10-09T06:34:54;4.70;;;1.90;;
56567;SDS011;42456;49.956;20.004;2023-10-09T06:37:45;3.50;;;2.00;;
56567;SDS011;42456;49.956;20.004;2023-10-09T06:40:27;3.80;;;2.30;;
56567;SDS011;42456;49.956;20.004;2023-10-09T06:43:12;4.30;;;2.30;;
56567;SDS011;42456;49.956;20.004;2023-10-09T06:45:49;4.50;;;2.30;;
56567;SDS011;42456;49.956;20.004;2023-10-09T06:48:30;8.30;;;2.30;;
56567;SDS011;42456;49.956;20.004;2023-10-09T06:51:04;4.40;;;2.30;;
56567;SDS011;42456;49.956;20.004;2023-10-09T06:53:46;3.90;;;2.20;;
56567;SDS011;42456;49.956;20.004;2023-10-09T06:56:20;3.50;;;2.20;;
56567;SDS011;42456;49.956;20.004;2023-10-09T06:58:56;3.00;;;1.90;;
56567;SDS011;42456;49.956;20.004;2023-10-09T07:01:25;4.40;;;2.10;;
56567;SDS011;42456;49.956;20.004;2023-10-09T07:04:06;5.20;;;2.20;;
56567;SDS011;42456;49.956;20.004;2023-10-09T07:06:50;5.00;;;2.10;;
56567;SDS011;42456;49.956;20.004;2023-10-09T07:09:18;3.60;;;2.20;;
56567;SDS011;42456;49.956;20.004;2023-10-09T07:11:47;3.10;;;2.10;;
56567;SDS011;42456;49.956;20.004;2023-10-09T07:14:20;4.20;;;1.90;;
56567;SDS011;42456;49.956;20.004;2023-10-09T07:16:57;2.80;;;1.70;;
56567;SDS011;42456;49.956;20.004;2023-10-09T07:19:40;4.10;;;1.60;;
56567;SDS011;42456;49.956;20.004;2023-10-09T07:22:08;4.10;;;1.80;;
56567;SDS011;42456;49.956;20.004;2023-10-09T07:24:50;2.40;;;1.60;;
56567;SDS011;42456;49.956;20.004;2023-10-09T07:27:26;5.30;;;1.80;;
56567;SDS011;42456;49.956;20.004;2023-10-09T07:30:08;5.20;;;2.00;;
56567;SDS011;42456;49.956;20.004;2023-10-09T07:32:49;4.00;;;2.10;;
56567;SDS011;42456;49.956;20.004;2023-10-09T07:35:19;3.30;;;1.80;;
56567;SDS011;42456;49.956;20.004;2023-10-09T07:38:06;3.30;;;1.80;;
56567;SDS011;42456;49.956;20.004;2023-10-09T07:43:22;2.90;;;1.70;;
56567;SDS011;42456;49.956;20.004;2023-10-09T07:45:55;2.30;;;1.60;;
56567;SDS011;42456;49.956;20.004;2023-10-09T07:48:25;2.70;;;1.60;;
56567;SDS011;42456;49.956;20.004;2023-10-09T07:50:52;2.80;;;1.90;;
56567;SDS011;42456;49.956;20.004;2023-10-09T07:53:32;3.60;;;2.10;;
56567;SDS011;42456;49.956;20.004;2023-10-09T07:56:10;2.80;;;1.60;;
56567;SDS011;42456;49.956;20.004;2023-10-09T07:58:40;2.40;;;1.90;;
56567;SDS011;42456;49.956;20.004;2023-10-09T08:01:16;4.30;;;2.00;;
56567;SDS011;42456;49.956;20.004;2023-10-09T08:03:49;4.70;;;2.60;;
56567;SDS011;42456;49.956;20.004;2023-10-09T08:09:08;2.30;;;1.40;;
56567;SDS011;42456;49.956;20.004;2023-10-09T08:11:48;3.20;;;1.80;;
56567;SDS011;42456;49.956;20.004;2023-10-09T08:14:28;3.10;;;2.10;;
56567;SDS011;42456;49.956;20.004;2023-10-09T08:17:01;2.00;;;1.80;;
56567;SDS011;42456;49.956;20.004;2023-10-09T08:19:46;3.30;;;1.70;;
56567;SDS011;42456;49.956;20.004;2023-10-09T08:22:24;4.60;;;2.20;;
56567;SDS011;42456;49.956;20.004;2023-10-09T08:24:52;3.30;;;1.80;;
56567;SDS011;42456;49.956;20.004;2023-10-09T08:27:26;5.10;;;1.60;;
56567;SDS011;42456;49.956;20.004;2023-10-09T08:32:55;3.80;;;1.60;;
56567;SDS011;42456;49.956;20.004;2023-10-09T08:35:32;4.30;;;1.80;;
56567;SDS011;42456;49.956;20.004;2023-10-09T08:38:03;2.90;;;2.10;;
56567;SDS011;42456;49.956;20.004;2023-10-09T08:40:35;1.70;;;1.30;;
56567;SDS011;42456;49.956;20.004;2023-10-09T08:43:09;4.40;;;2.40;;
56567;SDS011;42456;49.956;20.004;2023-10-09T08:45:40;2.40;;;1.90;;
56567;SDS011;42456;49.956;20.004;2023-10-09T08:48:11;4.40;;;2.20;;
56567;SDS011;42456;49.956;20.004;2023-10-09T08:50:42;6.70;;;3.10;;
56567;SDS011;42456;49.956;20.004;2023-10-09T08:53:11;4.60;;;2.20;;
56567;SDS011;42456;49.956;20.004;2023-10-09T08:55:40;3.90;;;2.00;;
56567;SDS011;42456;49.956;20.004;2023-10-09T08:58:08;4.20;;;1.70;;
56567;SDS011;42456;49.956;20.004;2023-10-09T09:00:49;2.20;;;1.70;;
56567;SDS011;42456;49.956;20.004;2023-10-09T09:03:17;4.20;;;1.60;;
56567;SDS011;42456;49.956;20.004;2023-10-09T09:05:47;4.20;;;1.80;;
56567;SDS011;42456;49.956;20.004;2023-10-09T09:08:25;3.20;;;1.90;;
56567;SDS011;42456;49.956;20.004;2023-10-09T09:11:01;2.30;;;1.60;;
56567;SDS011;42456;49.956;20.004;2023-10-09T09:13:39;1.90;;;1.70;;
56567;SDS011;42456;49.956;20.004;2023-10-09T09:16:19;3.50;;;1.90;;
56567;SDS011;42456;49.956;20.004;2023-10-09T09:18:53;4.00;;;1.80;;
56567;SDS011;42456;49.956;20.004;2023-10-09T09:21:32;3.10;;;1.90;;
56567;SDS011;42456;49.956;20.004;2023-10-09T09:24:11;3.90;;;1.90;;
56567;SDS011;42456;49.956;20.004;2023-10-09T09:26:42;3.00;;;1.60;;
56567;SDS011;42456;49.956;20.004;2023-10-09T09:29:13;3.70;;;1.80;;
56567;SDS011;42456;49.956;20.004;2023-10-09T09:31:54;5.20;;;2.30;;
56567;SDS011;42456;49.956;20.004;2023-10-09T09:34:43;3.00;;;1.60;;
56567;SDS011;42456;49.956;20.004;2023-10-09T09:37:34;3.30;;;2.00;;
56567;SDS011;42456;49.956;20.004;2023-10-09T09:40:10;2.40;;;1.40;;
56567;SDS011;42456;49.956;20.004;2023-10-09T09:42:51;2.70;;;1.70;;
56567;SDS011;42456;49.956;20.004;2023-10-09T09:45:23;5.60;;;2.00;;
56567;SDS011;42456;49.956;20.004;2023-10-09T09:47:51;2.80;;;1.30;;
56567;SDS011;42456;49.956;20.004;2023-10-09T09:50:21;2.80;;;1.70;;
56567;SDS011;42456;49.956;20.004;2023-10-09T09:52:55;3.20;;;2.00;;
56567;SDS011;42456;49.956;20.004;2023-10-09T09:55:29;5.70;;;2.30;;
56567;SDS011;42456;49.956;20.004;2023-10-09T09:58:02;5.10;;;2.10;;
56567;SDS011;42456;49.956;20.004;2023-10-09T10:00:34;4.40;;;2.00;;
56567;SDS011;42456;49.956;20.004;2023-10-09T10:03:11;3.30;;;1.80;;
56567;SDS011;42456;49.956;20.004;2023-10-09T10:05:41;3.60;;;1.90;;
56567;SDS011;42456;49.956;20.004;2023-10-09T10:08:16;2.20;;;1.50;;
56567;SDS011;42456;49.956;20.004;2023-10-09T10:10:47;3.50;;;1.60;;
56567;SDS011;42456;49.956;20.004;2023-10-09T10:16:26;3.50;;;1.80;;
56567;SDS011;42456;49.956;20.004;2023-10-09T10:19:02;2.80;;;1.80;;
56567;SDS011;42456;49.956;20.004;2023-10-09T10:21:34;3.70;;;2.00;;
56567;SDS011;42456;49.956;20.004;2023-10-09T10:27:19;4.00;;;2.30;;
56567;SDS011;42456;49.956;20.004;2023-10-09T10:35:24;2.50;;;1.70;;
56567;SDS011;42456;49.956;20.004;2023-10-09T10:38:39;3.30;;;1.80;;
56567;SDS011;42456;49.956;20.004;2023-10-09T10:41:10;2.40;;;1.70;;
56567;SDS011;42456;49.956;20.004;2023-10-09T10:43:40;2.90;;;1.90;;
56567;SDS011;42456;49.956;20.004;2023-10-09T10:46:17;3.30;;;1.90;;
56567;SDS011;42456;49.956;20.004;2023-10-09T10:49:00;4.10;;;2.00;;
56567;SDS011;42456;49.956;20.004;2023-10-09T10:51:38;4.80;;;1.80;;
56567;SDS011;42456;49.956;20.004;2023-10-09T10:54:08;2.40;;;1.90;;
56567;SDS011;42456;49.956;20.004;2023-10-09T10:56:49;2.10;;;1.70;;
56567;SDS011;42456;49.956;20.004;2023-10-09T10:59:18;4.30;;;1.70;;
56567;SDS011;42456;49.956;20.004;2023-10-09T11:01:56;3.20;;;1.90;;
56567;SDS011;42456;49.956;20.004;2023-10-09T11:04:29;3.80;;;1.60;;
56567;SDS011;42456;49.956;20.004;2023-10-09T11:07:00;4.20;;;2.10;;
56567;SDS011;42456;49.956;20.004;2023-10-09T11:09:46;3.80;;;1.90;;
56567;SDS011;42456;49.956;20.004;2023-10-09T11:15:09;3.90;;;2.10;;
56567;SDS011;42456;49.956;20.004;2023-10-09T11:17:59;4.30;;;2.10;;
56567;SDS011;42456;49.956;20.004;2023-10-09T11:20:44;3.00;;;2.10;;
56567;SDS011;42456;49.956;20.004;2023-10-09T11:23:29;6.40;;;2.10;;
56567;SDS011;42456;49.956;20.004;2023-10-09T11:26:05;3.30;;;2.10;;
56567;SDS011;42456;49.956;20.004;2023-10-09T11:31:41;5.00;;;2.60;;
56567;SDS011;42456;49.956;20.004;2023-10-09T11:34:24;4.30;;;2.60;;
56567;SDS011;42456;49.956;20.004;2023-10-09T11:37:03;3.90;;;2.40;;
56567;SDS011;42456;49.956;20.004;2023-10-09T11:39:42;3.20;;;2.10;;
56567;SDS011;42456;49.956;20.004;2023-10-09T11:42:29;4.30;;;2.20;;
56567;SDS011;42456;49.956;20.004;2023-10-09T11:45:03;3.40;;;1.90;;
56567;SDS011;42456;49.956;20.004;2023-10-09T11:47:47;2.40;;;1.60;;
56567;SDS011;42456;49.956;20.004;2023-10-09T11:53:10;3.80;;;2.50;;
56567;SDS011;42456;49.956;20.004;2023-10-09T11:55:51;6.20;;;2.20;;
56567;SDS011;42456;49.956;20.004;2023-10-09T11:58:21;3.60;;;2.10;;
56567;SDS011;42456;49.956;20.004;2023-10-09T12:00:52;3.40;;;2.10;;
56567;SDS011;42456;49.956;20.004;2023-10-09T12:03:32;3.10;;;2.20;;
56567;SDS011;42456;49.956;20.004;2023-10-09T12:06:03;4.30;;;2.10;;
56567;SDS011;42456;49.956;20.004;2023-10-09T12:08:38;2.50;;;1.70;;
56567;SDS011;42456;49.956;20.004;2023-10-09T12:11:08;3.60;;;2.10;;
56567;SDS011;42456;49.956;20.004;2023-10-09T12:13:36;3.90;;;2.20;;
56567;SDS011;42456;49.956;20.004;2023-10-09T12:16:10;4.10;;;2.40;;
56567;SDS011;42456;49.956;20.004;2023-10-09T12:18:37;4.40;;;2.50;;
56567;SDS011;42456;49.956;20.004;2023-10-09T12:21:07;4.00;;;2.50;;
56567;SDS011;42456;49.956;20.004;2023-10-09T12:23:42;4.70;;;2.50;;
56567;SDS011;42456;49.956;20.004;2023-10-09T12:26:13;4.80;;;2.40;;
56567;SDS011;42456;49.956;20.004;2023-10-09T12:28:41;3.20;;;2.20;;
56567;SDS011;42456;49.956;20.004;2023-10-09T12:31:13;5.20;;;2.30;;
56567;SDS011;42456;49.956;20.004;2023-10-09T12:33:47;4.30;;;2.50;;
56567;SDS011;42456;49.956;20.004;2023-10-09T12:36:16;3.40;;;2.20;;
56567;SDS011;42456;49.956;20.004;2023-10-09T12:38:47;2.30;;;1.90;;
56567;SDS011;42456;49.956;20.004;2023-10-09T12:41:20;4.00;;;2.10;;
56567;SDS011;42456;49.956;20.004;2023-10-09T12:43:55;3.00;;;2.00;;
56567;SDS011;42456;49.956;20.004;2023-10-09T12:46:25;3.50;;;2.20;;
56567;SDS011;42456;49.956;20.004;2023-10-09T12:48:53;3.80;;;2.20;;
56567;SDS011;42456;49.956;20.004;2023-10-09T12:51:24;3.70;;;2.40;;
56567;SDS011;42456;49.956;20.004;2023-10-09T12:53:57;2.80;;;2.00;;
56567;SDS011;42456;49.956;20.004;2023-10-09T12:56:24;3.30;;;2.30;;
56567;SDS011;42456;49.956;20.004;2023-10-09T12:59:05;3.80;;;2.30;;
56567;SDS011;42456;49.956;20.004;2023-10-09T13:01:37;2.80;;;2.30;;
56567;SDS011;42456;49.956;20.004;2023-10-09T13:04:10;3.10;;;2.10;;
56567;SDS011;42456;49.956;20.004;2023-10-09T13:06:38;4.60;;;2.50;;
56567;SDS011;42456;49.956;20.004;2023-10-09T13:09:12;5.40;;;2.50;;
56567;SDS011;42456;49.956;20.004;2023-10-09T13:11:41;4.10;;;2.60;;
56567;SDS011;42456;49.956;20.004;2023-10-09T13:14:09;5.50;;;2.80;;
56567;SDS011;42456;49.956;20.004;2023-10-09T13:16:44;3.20;;;2.40;;
56567;SDS011;42456;49.956;20.004;2023-10-09T13:19:12;4.90;;;2.70;;
56567;SDS011;42456;49.956;20.004;2023-10-09T13:21:39;6.20;;;2.90;;
56567;SDS011;42456;49.956;20.004;2023-10-09T13:24:06;14.90;;;6.70;;
56567;SDS011;42456;49.956;20.004;2023-10-09T13:26:43;10.00;;;4.80;;
56567;SDS011;42456;49.956;20.004;2023-10-09T13:29:18;8.80;;;3.60;;
56567;SDS011;42456;49.956;20.004;2023-10-09T13:31:51;6.10;;;3.00;;
56567;SDS011;42456;49.956;20.004;2023-10-09T13:34:24;4.90;;;2.80;;
56567;SDS011;42456;49.956;20.004;2023-10-09T13:36:55;5.10;;;2.80;;
56567;SDS011;42456;49.956;20.004;2023-10-09T13:39:26;6.50;;;3.10;;
56567;SDS011;42456;49.956;20.004;2023-10-09T13:41:57;5.50;;;3.10;;
56567;SDS011;42456;49.956;20.004;2023-10-09T13:44:27;5.50;;;3.10;;
56567;SDS011;42456;49.956;20.004;2023-10-09T13:47:03;6.00;;;3.20;;
56567;SDS011;42456;49.956;20.004;2023-10-09T13:49:36;4.80;;;2.80;;
56567;SDS011;42456;49.956;20.004;2023-10-09T13:52:09;6.60;;;3.30;;
56567;SDS011;42456;49.956;20.004;2023-10-09T13:54:36;5.60;;;3.40;;
56567;SDS011;42456;49.956;20.004;2023-10-09T13:57:03;6.90;;;3.50;;
56567;SDS011;42456;49.956;20.004;2023-10-09T13:59:32;5.10;;;3.10;;
56567;SDS011;42456;49.956;20.004;2023-10-09T14:02:01;6.20;;;2.90;;
56567;SDS011;42456;49.956;20.004;2023-10-09T14:04:36;5.30;;;2.90;;
56567;SDS011;42456;49.956;20.004;2023-10-09T14:07:03;4.50;;;2.70;;
56567;SDS011;42456;49.956;20.004;2023-10-09T14:09:35;5.00;;;2.90;;
56567;SDS011;42456;49.956;20.004;2023-10-09T14:12:05;4.10;;;2.70;;
56567;SDS011;42456;49.956;20.004;2023-10-09T14:14:35;5.10;;;2.90;;
56567;SDS011;42456;49.956;20.004;2023-10-09T14:17:07;5.90;;;3.20;;
56567;SDS011;42456;49.956;20.004;2023-10-09T14:19:41;5.20;;;3.10;;
56567;SDS011;42456;49.956;20.004;2023-10-09T14:22:17;6.00;;;3.70;;
56567;SDS011;42456;49.956;20.004;2023-10-09T14:24:46;5.80;;;3.30;;
56567;SDS011;42456;49.956;20.004;2023-10-09T14:27:14;6.60;;;3.00;;
56567;SDS011;42456;49.956;20.004;2023-10-09T14:32:12;4.90;;;2.80;;
56567;SDS011;42456;49.956;20.004;2023-10-09T14:34:42;6.50;;;2.90;;
56567;SDS011;42456;49.956;20.004;2023-10-09T14:37:17;6.80;;;3.70;;
56567;SDS011;42456;49.956;20.004;2023-10-09T14:39:46;8.00;;;4.10;;
56567;SDS011;42456;49.956;20.004;2023-10-09T14:42:15;5.30;;;3.40;;
56567;SDS011;42456;49.956;20.004;2023-10-09T14:44:43;8.30;;;3.70;;
56567;SDS011;42456;49.956;20.004;2023-10-09T14:47:14;6.40;;;3.90;;
56567;SDS011;42456;49.956;20.004;2023-10-09T14:49:41;8.20;;;4.20;;
56567;SDS011;42456;49.956;20.004;2023-10-09T14:52:14;9.50;;;4.30;;
56567;SDS011;42456;49.956;20.004;2023-10-09T14:54:46;8.20;;;4.80;;
56567;SDS011;42456;49.956;20.004;2023-10-09T14:57:14;9.20;;;4.70;;
56567;SDS011;42456;49.956;20.004;2023-10-09T14:59:41;7.90;;;3.60;;
56567;SDS011;42456;49.956;20.004;2023-10-09T15:02:12;7.60;;;3.70;;
56567;SDS011;42456;49.956;20.004;2023-10-09T15:04:40;6.50;;;3.70;;
56567;SDS011;42456;49.956;20.004;2023-10-09T15:07:07;10.20;;;5.10;;
56567;SDS011;42456;49.956;20.004;2023-10-09T15:09:34;11.10;;;5.20;;
56567;SDS011;42456;49.956;20.004;2023-10-09T15:12:07;11.30;;;5.30;;
56567;SDS011;42456;49.956;20.004;2023-10-09T15:14:35;10.20;;;5.00;;
56567;SDS011;42456;49.956;20.004;2023-10-09T15:17:03;13.40;;;5.80;;
56567;SDS011;42456;49.956;20.004;2023-10-09T15:19:33;12.10;;;5.60;;
56567;SDS011;42456;49.956;20.004;2023-10-09T15:22:00;12.60;;;6.00;;
56567;SDS011;42456;49.956;20.004;2023-10-09T15:24:28;9.00;;;4.30;;
56567;SDS011;42456;49.956;20.004;2023-10-09T15:26:57;7.60;;;3.80;;
56567;SDS011;42456;49.956;20.004;2023-10-09T15:29:25;9.90;;;4.80;;
56567;SDS011;42456;49.956;20.004;2023-10-09T15:31:58;10.70;;;5.30;;
56567;SDS011;42456;49.956;20.004;2023-10-09T15:34:41;14.30;;;6.60;;
56567;SDS011;42456;49.956;20.004;2023-10-09T15:37:08;11.30;;;6.50;;
56567;SDS011;42456;49.956;20.004;2023-10-09T15:39:35;11.00;;;5.80;;
56567;SDS011;42456;49.956;20.004;2023-10-09T15:42:03;10.10;;;5.40;;
56567;SDS011;42456;49.956;20.004;2023-10-09T15:44:33;8.60;;;4.70;;
56567;SDS011;42456;49.956;20.004;2023-10-09T15:47:03;9.80;;;4.70;;
56567;SDS011;42456;49.956;20.004;2023-10-09T15:49:35;10.20;;;5.20;;
56567;SDS011;42456;49.956;20.004;2023-10-09T15:52:10;10.00;;;5.20;;
56567;SDS011;42456;49.956;20.004;2023-10-09T15:54:40;8.70;;;4.70;;
56567;SDS011;42456;49.956;20.004;2023-10-09T15:57:10;9.50;;;4.80;;
56567;SDS011;42456;49.956;20.004;2023-10-09T15:59:39;11.00;;;5.30;;
56567;SDS011;42456;49.956;20.004;2023-10-09T16:02:07;11.80;;;5.60;;